createdAt,value
2019-06-25T00:02:09.071Z,84.52
2019-06-25T00:05:16.086Z,85.42
2019-06-25T00:08:22.586Z,85.87
2019-06-25T00:11:28.873Z,85.10
2019-06-25T00:14:35.260Z,83.49
2019-06-25T00:17:41.546Z,83.27
2019-06-25T00:20:47.853Z,83.96
2019-06-25T00:23:54.287Z,85.00
2019-06-25T00:27:00.834Z,82.02
2019-06-25T00:30:08.316Z,82.23
2019-06-25T00:33:14.801Z,84.57
2019-06-25T00:36:21.093Z,89.03
2019-06-25T00:39:27.386Z,85.75
2019-06-25T00:42:34.283Z,90.41
2019-06-25T00:45:40.693Z,90.96
2019-06-25T00:48:47.006Z,92.03
2019-06-25T00:51:53.419Z,91.72
2019-06-25T00:54:59.798Z,92.68
2019-06-25T00:58:06.152Z,93.46
2019-06-25T01:01:12.559Z,93.24
2019-06-25T01:04:18.935Z,91.43
2019-06-25T01:07:25.424Z,92.82
2019-06-25T01:10:31.707Z,92.75
2019-06-25T01:13:38.066Z,92.40
2019-06-25T01:16:44.734Z,92.46
2019-06-25T01:19:51.033Z,92.28
2019-06-25T01:22:57.666Z,90.82
2019-06-25T01:26:04.189Z,94.15
2019-06-25T01:29:10.507Z,94.51
2019-06-25T01:32:17.050Z,95.09
2019-06-25T01:35:24.392Z,92.89
2019-06-25T01:38:30.773Z,93.54
2019-06-25T01:41:37.077Z,92.75
2019-06-25T01:44:43.824Z,91.76
2019-06-25T01:47:50.245Z,95.28
2019-06-25T01:50:56.772Z,97.92
2019-06-25T01:54:03.211Z,98.71
2019-06-25T01:57:09.524Z,97.02
2019-06-25T02:00:17.498Z,96.51
2019-06-25T02:03:23.871Z,96.85
2019-06-25T02:06:30.279Z,99.58
2019-06-25T02:09:36.619Z,97.71
2019-06-25T02:12:42.961Z,100.00
2019-06-25T02:15:50.084Z,100.00
2019-06-25T02:18:56.590Z,100.00
2019-06-25T02:22:03.044Z,100.00
2019-06-25T02:25:09.910Z,98.70
2019-06-25T02:28:16.260Z,96.58
2019-06-25T02:31:22.594Z,94.35
2019-06-25T02:34:28.889Z,94.38
2019-06-25T02:37:35.257Z,95.32
2019-06-25T02:40:41.872Z,95.56
2019-06-25T02:43:49.270Z,95.12
2019-06-25T02:46:56.073Z,96.02
2019-06-25T02:50:02.467Z,97.43
2019-06-25T02:53:09.411Z,96.89
2019-06-25T02:56:15.760Z,95.02
2019-06-25T02:59:22.053Z,96.15
2019-06-25T03:02:28.828Z,98.37
2019-06-25T03:05:35.118Z,98.97
2019-06-25T03:08:41.509Z,100.00
2019-06-25T03:11:48.081Z,97.79
2019-06-25T03:14:54.412Z,99.70
2019-06-25T03:18:00.712Z,97.42
2019-06-25T03:21:07.159Z,96.22
2019-06-25T03:24:13.503Z,96.33
2019-06-25T03:27:20.099Z,99.75
2019-06-25T03:30:26.530Z,100.00
2019-06-25T03:33:32.862Z,96.87
2019-06-25T03:36:39.177Z,100.00
2019-06-25T03:39:45.856Z,99.22
2019-06-25T03:42:52.224Z,100.00
2019-06-25T03:45:58.541Z,100.00
2019-06-25T03:49:05.659Z,100.00
2019-06-25T03:52:12.428Z,100.00
2019-06-25T03:55:18.716Z,100.00
2019-06-25T03:58:25.593Z,100.00
2019-06-25T04:01:31.914Z,99.58
2019-06-25T04:04:38.334Z,99.00
2019-06-25T04:07:44.699Z,98.33
2019-06-25T04:10:51.012Z,98.42
2019-06-25T04:13:57.586Z,98.94
2019-06-25T04:17:03.934Z,98.72
2019-06-25T04:20:12.010Z,98.32
2019-06-25T04:23:18.334Z,97.96
2019-06-25T04:26:24.624Z,98.10
2019-06-25T04:29:30.947Z,97.50
2019-06-25T04:32:37.572Z,97.32
2019-06-25T04:35:43.944Z,97.30
2019-06-25T04:38:50.237Z,96.38
2019-06-25T04:41:56.644Z,96.25
2019-06-25T04:45:03.107Z,95.69
2019-06-25T04:48:09.425Z,94.55
2019-06-25T04:51:16.223Z,93.66
2019-06-25T04:54:22.532Z,93.24
2019-06-25T04:57:28.952Z,92.40
2019-06-25T05:00:35.369Z,91.40
2019-06-25T05:03:41.666Z,90.13
2019-06-25T05:06:48.049Z,91.60
2019-06-25T05:09:54.795Z,90.77
2019-06-25T05:13:01.300Z,91.60
2019-06-25T05:16:07.685Z,91.42
2019-06-25T05:19:14.045Z,89.65
2019-06-25T05:22:20.930Z,88.91
2019-06-25T05:25:27.842Z,89.45
2019-06-25T05:28:34.327Z,88.47
2019-06-25T05:31:40.931Z,87.82
2019-06-25T05:34:47.865Z,87.59
2019-06-25T05:37:54.547Z,86.61
2019-06-25T05:41:01.160Z,86.50
2019-06-25T05:44:07.657Z,85.43
2019-06-25T05:47:13.934Z,86.24
2019-06-25T05:50:21.371Z,86.13
2019-06-25T05:53:27.932Z,84.57
2019-06-25T05:56:34.392Z,86.18
2019-06-25T05:59:40.730Z,86.98
2019-06-25T06:02:46.787Z,85.99
2019-06-25T06:05:52.952Z,81.51
2019-06-25T06:08:59.068Z,78.57
2019-06-25T06:12:05.248Z,76.57
2019-06-25T06:15:12.575Z,75.82
2019-06-25T06:18:40.404Z,75.41
2019-06-25T06:21:46.767Z,72.60
2019-06-25T06:24:53.398Z,74.15
2019-06-25T06:27:59.441Z,69.41
2019-06-25T06:31:16.474Z,72.50
2019-06-25T06:34:14.580Z,71.14
2019-06-25T06:37:20.589Z,70.21
2019-06-25T06:40:26.840Z,70.41
2019-06-25T06:43:33.023Z,68.35
2019-06-25T06:46:39.194Z,65.05
2019-06-25T06:49:45.365Z,67.65
2019-06-25T06:52:52.020Z,65.93
2019-06-25T06:55:58.698Z,63.88
2019-06-25T06:59:05.160Z,65.04
2019-06-25T07:02:11.443Z,65.22
2019-06-25T07:05:17.883Z,63.79
2019-06-25T07:08:24.076Z,63.45
2019-06-25T07:11:30.269Z,65.19
2019-06-25T07:14:36.931Z,63.36
2019-06-25T07:17:43.612Z,64.80
2019-06-25T07:20:50.747Z,62.88
2019-06-25T07:23:56.938Z,62.88
2019-06-25T07:27:02.987Z,62.83
2019-06-25T07:30:17.888Z,62.19
2019-06-25T07:33:24.373Z,62.21
2019-06-25T07:36:30.523Z,60.08
2019-06-25T07:39:36.916Z,60.63
2019-06-25T07:42:44.401Z,60.18
2019-06-25T07:45:50.519Z,58.30
2019-06-25T07:48:56.895Z,56.87
2019-06-25T07:52:03.201Z,55.02
2019-06-25T07:55:10.722Z,51.42
2019-06-25T07:58:22.539Z,50.92
2019-06-25T08:01:26.580Z,50.45
2019-06-25T08:04:32.669Z,48.40
2019-06-25T08:07:38.777Z,48.79
2019-06-25T08:10:44.826Z,47.52
2019-06-25T08:13:50.858Z,47.69
2019-06-25T08:16:56.976Z,47.60
2019-06-25T08:20:03.188Z,46.24
2019-06-25T08:23:09.219Z,45.83
2019-06-25T08:26:15.577Z,47.32
2019-06-25T08:29:21.700Z,45.51
2019-06-25T08:32:28.004Z,46.23
2019-06-25T08:35:35.098Z,44.87
2019-06-25T08:38:41.217Z,45.35
2019-06-25T08:41:47.318Z,46.63
2019-06-25T08:44:53.541Z,45.38
2019-06-25T08:47:59.594Z,42.62
2019-06-25T08:51:05.816Z,42.63
2019-06-25T08:54:14.960Z,42.67
2019-06-25T08:57:20.270Z,42.11
2019-06-25T09:00:27.891Z,45.18
2019-06-25T09:03:33.928Z,43.64
2019-06-25T09:06:40.258Z,42.79
2019-06-25T09:09:46.303Z,42.39
2019-06-25T09:12:52.496Z,40.76
2019-06-25T09:15:58.552Z,40.59
2019-06-25T09:19:06.210Z,40.55
2019-06-25T09:22:12.515Z,40.98
2019-06-25T09:25:18.983Z,41.46
2019-06-25T09:28:25.311Z,40.06
2019-06-25T09:31:31.580Z,40.14
2019-06-25T09:34:38.358Z,39.59
2019-06-25T09:37:44.489Z,42.07
2019-06-25T09:40:48.641Z,40.06
2019-06-25T09:44:00.117Z,37.51
2019-06-25T09:47:01.258Z,40.19
2019-06-25T09:50:08.382Z,40.30
2019-06-25T09:53:14.489Z,38.16
2019-06-25T09:56:20.659Z,38.63
2019-06-25T09:59:26.723Z,36.34
2019-06-25T10:02:33.023Z,37.81
2019-06-25T10:05:39.373Z,38.24
2019-06-25T10:08:45.597Z,36.40
2019-06-25T10:11:51.788Z,38.03
2019-06-25T10:14:57.932Z,39.24
2019-06-25T10:18:04.107Z,37.61
2019-06-25T10:21:10.137Z,37.04
2019-06-25T10:24:16.325Z,37.10
2019-06-25T10:27:22.607Z,36.86
2019-06-25T10:30:41.956Z,38.27
2019-06-25T10:33:47.943Z,38.27
2019-06-25T10:36:56.942Z,36.65
2019-06-25T10:40:03.630Z,37.67
2019-06-25T10:43:09.956Z,35.78
2019-06-25T10:46:16.040Z,38.79
2019-06-25T10:49:22.098Z,36.89
2019-06-25T10:52:28.481Z,36.18
2019-06-25T10:55:34.826Z,35.82
2019-06-25T10:58:40.847Z,35.64
2019-06-25T11:01:46.889Z,36.89
2019-06-25T11:05:05.567Z,37.22
2019-06-25T11:08:11.659Z,34.56
2019-06-25T11:11:17.681Z,35.20
2019-06-25T11:14:23.975Z,36.11
2019-06-25T11:17:30.073Z,35.72
2019-06-25T11:20:36.337Z,35.30
2019-06-25T11:23:42.496Z,37.16
2019-06-25T11:26:48.606Z,37.24
2019-06-25T11:29:54.705Z,36.90
2019-06-25T11:33:02.602Z,37.01
2019-06-25T11:36:20.904Z,37.93
2019-06-25T11:39:16.917Z,37.35
2019-06-25T11:42:22.964Z,36.38
2019-06-25T11:45:29.013Z,38.99
2019-06-25T11:48:35.198Z,38.16
2019-06-25T11:51:41.273Z,37.86
2019-06-25T11:54:47.298Z,37.75
2019-06-25T11:57:53.427Z,38.68
2019-06-25T12:00:59.537Z,37.63
2019-06-25T12:04:05.649Z,37.10
2019-06-25T12:07:11.972Z,37.23
2019-06-25T12:10:18.919Z,37.60
2019-06-25T12:13:26.282Z,38.05
2019-06-25T12:16:32.415Z,36.76
2019-06-25T12:19:47.938Z,38.56
2019-06-25T12:22:47.345Z,38.50
2019-06-25T12:25:53.539Z,37.60
2019-06-25T12:28:59.658Z,38.41
2019-06-25T12:32:05.698Z,38.33
2019-06-25T12:35:12.569Z,38.98
2019-06-25T12:38:20.249Z,38.42
2019-06-25T12:41:26.337Z,39.71
2019-06-25T12:44:32.414Z,38.10
2019-06-25T12:47:38.540Z,37.78
2019-06-25T12:50:44.641Z,39.22
2019-06-25T12:53:51.269Z,39.40
2019-06-25T12:56:57.510Z,38.47
2019-06-25T13:00:03.770Z,38.28
2019-06-25T13:03:10.620Z,37.85
2019-06-25T13:06:16.740Z,38.75
2019-06-25T13:09:23.218Z,38.05
2019-06-25T13:12:29.494Z,38.12
2019-06-25T13:15:35.882Z,39.02
2019-06-25T13:18:42.016Z,39.02
2019-06-25T13:21:48.218Z,39.19
2019-06-25T13:24:54.265Z,38.74
2019-06-25T13:28:00.293Z,37.25
2019-06-25T13:31:06.681Z,37.72
2019-06-25T13:34:12.679Z,38.93
2019-06-25T13:37:18.952Z,39.55
2019-06-25T13:40:26.409Z,38.74
2019-06-25T13:43:33.887Z,40.33
2019-06-25T13:46:39.970Z,38.74
2019-06-25T13:49:46.415Z,39.69
2019-06-25T13:52:52.432Z,39.17
2019-06-25T13:55:58.463Z,38.99
2019-06-25T13:59:04.913Z,39.49
2019-06-25T14:02:14.650Z,39.12
2019-06-25T14:05:21.153Z,40.09
2019-06-25T14:08:27.371Z,39.75
2019-06-25T14:11:33.550Z,40.85
2019-06-25T14:14:39.744Z,40.22
2019-06-25T14:17:46.092Z,39.75
2019-06-25T14:20:52.150Z,40.60
2019-06-25T14:23:59.557Z,40.73
2019-06-25T14:27:06.267Z,38.61
2019-06-25T14:30:13.633Z,37.80
2019-06-25T14:33:19.672Z,37.94
2019-06-25T14:36:25.881Z,37.87
2019-06-25T14:39:32.016Z,39.59
2019-06-25T14:42:38.317Z,38.93
2019-06-25T14:45:44.569Z,39.41
2019-06-25T14:48:50.899Z,39.62
2019-06-25T14:51:57.276Z,38.33
2019-06-25T14:55:03.675Z,39.75
2019-06-25T14:58:10.003Z,41.92
2019-06-25T15:01:16.306Z,43.82
2019-06-25T15:04:22.808Z,41.61
2019-06-25T15:07:28.990Z,42.69
2019-06-25T15:10:35.579Z,41.33
2019-06-25T15:13:42.098Z,41.92
2019-06-25T15:16:48.258Z,41.41
2019-06-25T15:19:54.297Z,42.28
2019-06-25T15:23:00.523Z,41.63
2019-06-25T15:26:06.773Z,42.44
2019-06-25T15:29:13.088Z,42.85
2019-06-25T15:32:19.112Z,43.09
2019-06-25T15:35:25.141Z,43.59
2019-06-25T15:38:46.241Z,42.86
2019-06-25T15:41:39.179Z,43.81
2019-06-25T15:44:45.496Z,43.63
2019-06-25T15:47:52.185Z,42.58
2019-06-25T15:50:58.291Z,42.67
2019-06-25T15:54:04.645Z,44.25
2019-06-25T15:57:10.713Z,43.78
2019-06-25T16:00:18.314Z,43.48
2019-06-25T16:03:24.514Z,44.11
2019-06-25T16:06:30.666Z,43.82
2019-06-25T16:09:36.804Z,44.21
2019-06-25T16:12:43.056Z,45.10
2019-06-25T16:15:50.457Z,44.43
2019-06-25T16:18:56.833Z,45.01
2019-06-25T16:22:03.543Z,45.83
2019-06-25T16:25:10.307Z,45.54
2019-06-25T16:28:16.425Z,44.50
2019-06-25T16:31:23.600Z,44.07
2019-06-25T16:34:30.203Z,45.42
2019-06-25T16:37:36.359Z,46.02
2019-06-25T16:40:42.834Z,46.00
2019-06-25T16:43:48.949Z,44.90
2019-06-25T16:46:56.851Z,46.43
2019-06-25T16:50:03.137Z,46.18
2019-06-25T16:53:09.451Z,45.17
2019-06-25T16:56:15.650Z,45.13
2019-06-25T16:59:23.263Z,45.21
2019-06-25T17:02:35.547Z,46.17
2019-06-25T17:05:37.284Z,45.96
2019-06-25T17:08:47.900Z,45.24
2019-06-25T17:11:51.152Z,46.43
2019-06-25T17:14:57.479Z,47.33
2019-06-25T17:18:03.814Z,45.74
2019-06-25T17:21:09.848Z,47.22
2019-06-25T17:24:16.058Z,47.54
2019-06-25T17:27:22.143Z,46.98
2019-06-25T17:30:28.578Z,47.93
2019-06-25T17:33:34.813Z,47.46
2019-06-25T17:36:41.022Z,48.47
2019-06-25T17:39:51.558Z,48.72
2019-06-25T17:42:55.252Z,48.31
2019-06-25T17:46:01.416Z,48.68
2019-06-25T17:49:07.587Z,48.40
2019-06-25T17:52:13.795Z,48.36
2019-06-25T17:55:20.046Z,48.43
2019-06-25T17:58:27.475Z,49.83
2019-06-25T18:01:33.858Z,49.44
2019-06-25T18:04:40.046Z,50.21
2019-06-25T18:07:46.219Z,51.30
2019-06-25T18:10:52.409Z,51.71
2019-06-25T18:13:58.461Z,51.10
2019-06-25T18:17:04.526Z,52.46
2019-06-25T18:20:11.011Z,52.84
2019-06-25T18:23:17.126Z,51.35
2019-06-25T18:26:23.155Z,53.44
2019-06-25T18:29:31.286Z,54.97
2019-06-25T18:32:37.380Z,55.18
2019-06-25T18:35:43.450Z,56.63
2019-06-25T18:38:49.778Z,58.47
2019-06-25T18:41:55.971Z,57.03
2019-06-25T18:45:04.553Z,58.51
2019-06-25T18:48:10.110Z,58.76
2019-06-25T18:51:16.115Z,59.16
2019-06-25T18:54:22.273Z,59.59
2019-06-25T18:57:28.683Z,60.02
2019-06-25T19:00:34.737Z,61.00
2019-06-25T19:03:40.854Z,61.82
2019-06-25T19:06:46.900Z,61.68
2019-06-25T19:09:53.001Z,61.97
2019-06-25T19:12:59.205Z,62.35
2019-06-25T19:16:05.528Z,62.92
2019-06-25T19:19:11.711Z,62.95
2019-06-25T19:22:18.880Z,63.70
2019-06-25T19:25:26.878Z,64.46
2019-06-25T19:28:32.908Z,64.23
2019-06-25T19:31:39.118Z,64.78
2019-06-25T19:34:45.525Z,64.82
2019-06-25T19:37:51.804Z,65.80
2019-06-25T19:40:57.934Z,65.50
2019-06-25T19:44:04.275Z,65.14
2019-06-25T19:47:10.327Z,65.35
2019-06-25T19:50:18.182Z,65.98
2019-06-25T19:53:25.191Z,67.10
2019-06-25T19:56:31.248Z,66.72
2019-06-25T19:59:37.640Z,66.86
2019-06-25T20:02:43.934Z,68.37
2019-06-25T20:05:50.122Z,67.73
2019-06-25T20:08:56.248Z,68.30
2019-06-25T20:12:02.343Z,67.19
2019-06-25T20:15:09.808Z,69.04
2019-06-25T20:18:16.014Z,68.82
2019-06-25T20:21:22.360Z,67.07
2019-06-25T20:24:28.665Z,67.51
2019-06-25T20:27:35.011Z,67.97
2019-06-25T20:30:42.004Z,70.01
2019-06-25T20:33:48.216Z,68.69
2019-06-25T20:36:54.723Z,71.18
2019-06-25T20:40:01.012Z,74.20
2019-06-25T20:43:08.425Z,78.46
2019-06-25T20:46:14.568Z,79.69
2019-06-25T20:49:20.652Z,80.68
2019-06-25T20:52:26.804Z,81.02
2019-06-25T20:55:33.321Z,81.86
2019-06-25T20:58:39.707Z,82.73
2019-06-25T21:01:50.444Z,80.63
2019-06-25T21:04:56.340Z,79.80
2019-06-25T21:08:02.536Z,78.85
2019-06-25T21:11:08.548Z,78.21
2019-06-25T21:14:14.615Z,79.65
2019-06-25T21:17:20.700Z,82.66
2019-06-25T21:20:26.842Z,84.16
2019-06-25T21:23:32.845Z,82.00
2019-06-25T21:26:39.040Z,86.39
2019-06-25T21:29:45.693Z,85.34
2019-06-25T21:32:51.940Z,83.99
2019-06-25T21:35:57.986Z,89.52
2019-06-25T21:39:05.100Z,88.49
2019-06-25T21:42:11.291Z,89.60
2019-06-25T21:45:17.997Z,88.74
2019-06-25T21:48:24.030Z,89.79
2019-06-25T21:51:30.105Z,91.78
2019-06-25T21:54:36.136Z,91.70
2019-06-25T21:57:42.199Z,91.27
2019-06-25T22:00:48.887Z,90.36
2019-06-25T22:03:56.524Z,87.09
2019-06-25T22:07:02.599Z,89.84
2019-06-25T22:10:09.770Z,89.52
2019-06-25T22:13:17.422Z,89.98
2019-06-25T22:16:24.538Z,90.66
2019-06-25T22:19:31.606Z,90.88
2019-06-25T22:22:38.118Z,90.61
2019-06-25T22:25:44.436Z,91.92
2019-06-25T22:28:50.682Z,92.43
2019-06-25T22:31:58.410Z,92.74
2019-06-25T22:35:05.992Z,93.52
2019-06-25T22:38:13.654Z,94.99
2019-06-25T22:41:19.936Z,92.42
2019-06-25T22:44:25.940Z,91.65
2019-06-25T22:47:32.045Z,95.18
2019-06-25T22:50:46.898Z,92.67
2019-06-25T22:53:45.937Z,92.64
2019-06-25T22:56:54.859Z,91.44
2019-06-25T23:00:01.054Z,90.04
2019-06-25T23:03:07.085Z,87.98
2019-06-25T23:06:13.098Z,87.64
2019-06-25T23:09:19.136Z,86.89
2019-06-25T23:12:25.180Z,87.98
2019-06-25T23:15:34.354Z,87.28
2019-06-25T23:18:41.083Z,87.42
2019-06-25T23:21:47.107Z,86.74
2019-06-25T23:24:53.167Z,86.98
2019-06-25T23:27:59.198Z,84.57
2019-06-25T23:31:05.639Z,86.30
2019-06-25T23:34:11.711Z,86.76
2019-06-25T23:37:17.790Z,88.01
2019-06-25T23:40:25.039Z,87.64
2019-06-25T23:43:31.071Z,87.82
2019-06-25T23:46:37.786Z,87.33
2019-06-25T23:49:43.813Z,87.46
2019-06-25T23:52:49.922Z,87.68
2019-06-25T23:55:55.937Z,87.71
2019-06-25T23:59:02.325Z,87.44
